sensor_id;sensor_type;location;lat;lon;timestamp;P1;durP1;ratioP1;P2;durP2;ratioP2
16033;SDS011;8121;51.418;6.998;2022-08-18T00:07:28;75.27;;;44.50;;
16033;SDS011;8121;51.418;6.998;2022-08-18T00:17:33;54.23;;;32.07;;
16033;SDS011;8121;51.418;6.998;2022-08-18T00:27:35;79.43;;;43.23;;
16033;SDS011;8121;51.418;6.998;2022-08-18T00:37:38;63.70;;;36.40;;
16033;SDS011;8121;51.418;6.998;2022-08-18T00:47:40;84.00;;;42.20;;
16033;SDS011;8121;51.418;6.998;2022-08-18T00:57:43;51.90;;;31.03;;
16033;SDS011;8121;51.418;6.998;2022-08-18T01:07:48;87.20;;;45.90;;
16033;SDS011;8121;51.418;6.998;2022-08-18T01:17:52;92.13;;;48.20;;
16033;SDS011;8121;51.418;6.998;2022-08-18T01:28:13;101.63;;;51.63;;
16033;SDS011;8121;51.418;6.998;2022-08-18T01:38:17;104.70;;;47.30;;
16033;SDS011;8121;51.418;6.998;2022-08-18T01:48:21;82.87;;;42.53;;
16033;SDS011;8121;51.418;6.998;2022-08-18T01:58:23;129.87;;;57.03;;
16033;SDS011;8121;51.418;6.998;2022-08-18T02:08:28;65.17;;;35.07;;
16033;SDS011;8121;51.418;6.998;2022-08-18T02:18:31;106.43;;;51.17;;
16033;SDS011;8121;51.418;6.998;2022-08-18T02:28:37;92.70;;;46.93;;
16033;SDS011;8121;51.418;6.998;2022-08-18T02:38:40;84.57;;;41.70;;
16033;SDS011;8121;51.418;6.998;2022-08-18T02:48:43;104.77;;;45.20;;
16033;SDS011;8121;51.418;6.998;2022-08-18T02:58:46;127.47;;;54.67;;
16033;SDS011;8121;51.418;6.998;2022-08-18T03:08:49;119.57;;;49.47;;
16033;SDS011;8121;51.418;6.998;2022-08-18T03:18:51;84.83;;;39.27;;
16033;SDS011;8121;51.418;6.998;2022-08-18T03:28:55;106.13;;;44.43;;
16033;SDS011;8121;51.418;6.998;2022-08-18T03:38:57;118.67;;;49.83;;
16033;SDS011;8121;51.418;6.998;2022-08-18T03:49:01;145.23;;;57.87;;
16033;SDS011;8121;51.418;6.998;2022-08-18T03:59:03;156.17;;;67.77;;
16033;SDS011;8121;51.418;6.998;2022-08-18T04:09:10;141.57;;;57.13;;
16033;SDS011;8121;51.418;6.998;2022-08-18T04:19:14;137.80;;;47.60;;
16033;SDS011;8121;51.418;6.998;2022-08-18T04:39:43;102.13;;;42.47;;
16033;SDS011;8121;51.418;6.998;2022-08-18T04:49:49;85.97;;;36.30;;
16033;SDS011;8121;51.418;6.998;2022-08-18T04:59:55;82.17;;;36.77;;
16033;SDS011;8121;51.418;6.998;2022-08-18T05:10:05;88.57;;;38.57;;
16033;SDS011;8121;51.418;6.998;2022-08-18T05:20:09;96.10;;;42.70;;
16033;SDS011;8121;51.418;6.998;2022-08-18T05:30:13;84.50;;;34.30;;
16033;SDS011;8121;51.418;6.998;2022-08-18T05:40:15;108.33;;;42.40;;
16033;SDS011;8121;51.418;6.998;2022-08-18T05:50:18;85.53;;;37.50;;
16033;SDS011;8121;51.418;6.998;2022-08-18T06:00:20;93.70;;;38.83;;
16033;SDS011;8121;51.418;6.998;2022-08-18T06:10:24;104.47;;;45.90;;
16033;SDS011;8121;51.418;6.998;2022-08-18T06:20:27;96.73;;;42.00;;
16033;SDS011;8121;51.418;6.998;2022-08-18T06:30:38;95.20;;;36.97;;
16033;SDS011;8121;51.418;6.998;2022-08-18T06:40:59;60.28;;;31.55;;
16033;SDS011;8121;51.418;6.998;2022-08-18T06:51:02;44.70;;;21.27;;
16033;SDS011;8121;51.418;6.998;2022-08-18T07:01:05;51.63;;;25.43;;
16033;SDS011;8121;51.418;6.998;2022-08-18T07:11:13;30.40;;;17.53;;
16033;SDS011;8121;51.418;6.998;2022-08-18T07:21:23;27.13;;;15.80;;
16033;SDS011;8121;51.418;6.998;2022-08-18T07:31:37;21.10;;;11.60;;
16033;SDS011;8121;51.418;6.998;2022-08-18T07:41:41;22.60;;;11.97;;
16033;SDS011;8121;51.418;6.998;2022-08-18T07:51:47;19.93;;;11.10;;
16033;SDS011;8121;51.418;6.998;2022-08-18T08:01:51;34.63;;;19.77;;
16033;SDS011;8121;51.418;6.998;2022-08-18T08:11:58;32.93;;;16.07;;
16033;SDS011;8121;51.418;6.998;2022-08-18T08:22:04;18.43;;;12.07;;
16033;SDS011;8121;51.418;6.998;2022-08-18T08:32:11;23.53;;;12.57;;
16033;SDS011;8121;51.418;6.998;2022-08-18T08:42:18;23.40;;;13.47;;
16033;SDS011;8121;51.418;6.998;2022-08-18T08:52:25;21.70;;;13.77;;
16033;SDS011;8121;51.418;6.998;2022-08-18T09:02:30;13.53;;;9.73;;
16033;SDS011;8121;51.418;6.998;2022-08-18T09:12:42;28.83;;;16.97;;
16033;SDS011;8121;51.418;6.998;2022-08-18T09:22:55;16.80;;;9.47;;
16033;SDS011;8121;51.418;6.998;2022-08-18T09:33:09;19.43;;;13.40;;
16033;SDS011;8121;51.418;6.998;2022-08-18T09:43:23;37.33;;;18.13;;
16033;SDS011;8121;51.418;6.998;2022-08-18T10:04:15;22.43;;;14.17;;
16033;SDS011;8121;51.418;6.998;2022-08-18T10:24:51;24.30;;;18.30;;
16033;SDS011;8121;51.418;6.998;2022-08-18T10:34:55;12.00;;;9.03;;
16033;SDS011;8121;51.418;6.998;2022-08-18T10:44:59;34.67;;;25.17;;
16033;SDS011;8121;51.418;6.998;2022-08-18T11:05:37;21.87;;;15.40;;
16033;SDS011;8121;51.418;6.998;2022-08-18T11:15:44;46.53;;;30.97;;
16033;SDS011;8121;51.418;6.998;2022-08-18T11:25:50;42.33;;;27.37;;
16033;SDS011;8121;51.418;6.998;2022-08-18T11:35:53;26.13;;;17.90;;
16033;SDS011;8121;51.418;6.998;2022-08-18T11:45:58;17.07;;;13.60;;
16033;SDS011;8121;51.418;6.998;2022-08-18T11:56:03;17.80;;;13.90;;
16033;SDS011;8121;51.418;6.998;2022-08-18T12:06:10;12.10;;;9.17;;
16033;SDS011;8121;51.418;6.998;2022-08-18T12:16:29;13.00;;;8.50;;
16033;SDS011;8121;51.418;6.998;2022-08-18T12:26:32;6.07;;;5.57;;
16033;SDS011;8121;51.418;6.998;2022-08-18T12:36:35;5.50;;;5.00;;
16033;SDS011;8121;51.418;6.998;2022-08-18T12:46:37;19.07;;;10.70;;
16033;SDS011;8121;51.418;6.998;2022-08-18T12:56:40;6.53;;;5.93;;
16033;SDS011;8121;51.418;6.998;2022-08-18T13:06:43;6.17;;;5.57;;
16033;SDS011;8121;51.418;6.998;2022-08-18T13:16:47;11.70;;;10.00;;
16033;SDS011;8121;51.418;6.998;2022-08-18T13:26:50;15.97;;;10.60;;
16033;SDS011;8121;51.418;6.998;2022-08-18T13:36:54;11.23;;;9.23;;
16033;SDS011;8121;51.418;6.998;2022-08-18T13:46:56;8.90;;;7.23;;
16033;SDS011;8121;51.418;6.998;2022-08-18T13:56:59;10.30;;;9.30;;
16033;SDS011;8121;51.418;6.998;2022-08-18T14:07:01;7.03;;;6.40;;
16033;SDS011;8121;51.418;6.998;2022-08-18T14:17:05;10.83;;;7.97;;
16033;SDS011;8121;51.418;6.998;2022-08-18T14:27:06;8.90;;;8.00;;
16033;SDS011;8121;51.418;6.998;2022-08-18T14:37:09;7.80;;;6.73;;
16033;SDS011;8121;51.418;6.998;2022-08-18T14:47:11;4.80;;;4.37;;
16033;SDS011;8121;51.418;6.998;2022-08-18T14:57:14;8.13;;;6.80;;
16033;SDS011;8121;51.418;6.998;2022-08-18T15:07:15;5.03;;;4.57;;
16033;SDS011;8121;51.418;6.998;2022-08-18T15:17:19;4.20;;;3.90;;
16033;SDS011;8121;51.418;6.998;2022-08-18T15:27:21;2.97;;;2.77;;
16033;SDS011;8121;51.418;6.998;2022-08-18T15:37:24;3.37;;;3.13;;
16033;SDS011;8121;51.418;6.998;2022-08-18T15:47:25;2.60;;;2.50;;
16033;SDS011;8121;51.418;6.998;2022-08-18T15:57:28;6.90;;;4.13;;
16033;SDS011;8121;51.418;6.998;2022-08-18T16:07:30;3.47;;;3.17;;
16033;SDS011;8121;51.418;6.998;2022-08-18T16:17:34;3.90;;;3.60;;
16033;SDS011;8121;51.418;6.998;2022-08-18T16:27:37;2.40;;;2.30;;
16033;SDS011;8121;51.418;6.998;2022-08-18T16:37:42;5.90;;;2.73;;
16033;SDS011;8121;51.418;6.998;2022-08-18T16:47:43;3.63;;;2.80;;
16033;SDS011;8121;51.418;6.998;2022-08-18T16:57:46;2.03;;;1.83;;
16033;SDS011;8121;51.418;6.998;2022-08-18T17:08:05;2.67;;;2.47;;
16033;SDS011;8121;51.418;6.998;2022-08-18T17:18:08;1.90;;;1.80;;
16033;SDS011;8121;51.418;6.998;2022-08-18T17:28:10;6.20;;;3.63;;
16033;SDS011;8121;51.418;6.998;2022-08-18T17:38:15;3.37;;;3.00;;
16033;SDS011;8121;51.418;6.998;2022-08-18T17:48:22;5.63;;;3.80;;
16033;SDS011;8121;51.418;6.998;2022-08-18T17:58:27;2.47;;;2.37;;
16033;SDS011;8121;51.418;6.998;2022-08-18T18:08:46;1.93;;;1.73;;
16033;SDS011;8121;51.418;6.998;2022-08-18T18:18:54;3.27;;;1.87;;
16033;SDS011;8121;51.418;6.998;2022-08-18T18:29:09;1.73;;;1.63;;
16033;SDS011;8121;51.418;6.998;2022-08-18T18:39:15;3.53;;;2.33;;
16033;SDS011;8121;51.418;6.998;2022-08-18T18:49:21;3.20;;;2.90;;
16033;SDS011;8121;51.418;6.998;2022-08-18T18:59:28;4.60;;;3.13;;
16033;SDS011;8121;51.418;6.998;2022-08-18T19:09:41;4.63;;;3.27;;
16033;SDS011;8121;51.418;6.998;2022-08-18T19:19:48;8.27;;;3.33;;
16033;SDS011;8121;51.418;6.998;2022-08-18T19:29:53;8.23;;;3.90;;
16033;SDS011;8121;51.418;6.998;2022-08-18T19:40:00;2.13;;;2.03;;
16033;SDS011;8121;51.418;6.998;2022-08-18T19:50:11;3.30;;;3.00;;
16033;SDS011;8121;51.418;6.998;2022-08-18T20:00:20;4.87;;;3.73;;
16033;SDS011;8121;51.418;6.998;2022-08-18T20:10:37;2.57;;;2.43;;
16033;SDS011;8121;51.418;6.998;2022-08-18T20:31:51;2.67;;;2.47;;
16033;SDS011;8121;51.418;6.998;2022-08-18T20:42:00;2.00;;;1.80;;
16033;SDS011;8121;51.418;6.998;2022-08-18T20:52:03;2.20;;;1.90;;
16033;SDS011;8121;51.418;6.998;2022-08-18T21:02:27;6.87;;;2.40;;
16033;SDS011;8121;51.418;6.998;2022-08-18T21:12:30;2.60;;;2.17;;
16033;SDS011;8121;51.418;6.998;2022-08-18T21:33:16;2.03;;;1.93;;
16033;SDS011;8121;51.418;6.998;2022-08-18T21:54:40;7.10;;;4.30;;
16033;SDS011;8121;51.418;6.998;2022-08-18T22:26:51;5.70;;;4.20;;
16033;SDS011;8121;51.418;6.998;2022-08-18T22:37:40;7.13;;;4.33;;
16033;SDS011;8121;51.418;6.998;2022-08-18T22:47:43;6.33;;;4.60;;
16033;SDS011;8121;51.418;6.998;2022-08-18T22:57:46;9.33;;;4.80;;
16033;SDS011;8121;51.418;6.998;2022-08-18T23:07:48;6.90;;;4.10;;
16033;SDS011;8121;51.418;6.998;2022-08-18T23:17:51;8.10;;;4.90;;
16033;SDS011;8121;51.418;6.998;2022-08-18T23:27:52;4.17;;;3.77;;
16033;SDS011;8121;51.418;6.998;2022-08-18T23:37:57;6.87;;;4.10;;
16033;SDS011;8121;51.418;6.998;2022-08-18T23:47:59;8.43;;;4.27;;
16033;SDS011;8121;51.418;6.998;2022-08-18T23:58:02;5.17;;;3.40;;
